sensor_id;sensor_type;location;lat;lon;timestamp;temperature;humidity
35027;DHT22;60696;51.426;6.934;2023-05-15T04:02:51;13.30;99.90
35027;DHT22;60696;51.426;6.934;2023-05-15T04:05:17;13.30;99.90
35027;DHT22;60696;51.426;6.934;2023-05-15T04:07:45;13.30;99.90
35027;DHT22;60696;51.426;6.934;2023-05-15T04:10:10;13.30;99.90
35027;DHT22;60696;51.426;6.934;2023-05-15T04:12:36;13.40;99.90
35027;DHT22;60696;51.426;6.934;2023-05-15T04:15:23;13.40;99.90
35027;DHT22;60696;51.426;6.934;2023-05-15T04:17:51;13.50;99.90
35027;DHT22;60696;51.426;6.934;2023-05-15T04:20:19;13.40;99.90
35027;DHT22;60696;51.426;6.934;2023-05-15T04:22:45;13.40;99.90
35027;DHT22;60696;51.426;6.934;2023-05-15T04:25:11;13.50;99.90
35027;DHT22;60696;51.426;6.934;2023-05-15T04:27:39;13.60;99.90
35027;DHT22;60696;51.426;6.934;2023-05-15T04:30:05;13.60;99.90
35027;DHT22;60696;51.426;6.934;2023-05-15T04:32:31;13.70;99.90
35027;DHT22;60696;51.426;6.934;2023-05-15T04:35:02;13.70;99.90
35027;DHT22;60696;51.426;6.934;2023-05-15T04:37:29;13.70;99.90
35027;DHT22;60696;51.426;6.934;2023-05-15T04:39:55;13.80;99.90
35027;DHT22;60696;51.426;6.934;2023-05-15T04:42:21;13.80;99.90
35027;DHT22;60696;51.426;6.934;2023-05-15T04:44:46;13.80;99.90
35027;DHT22;60696;51.426;6.934;2023-05-15T04:47:12;13.90;99.90
35027;DHT22;60696;51.426;6.934;2023-05-15T04:49:39;13.80;99.90
35027;DHT22;60696;51.426;6.934;2023-05-15T04:52:05;13.70;99.90
35027;DHT22;60696;51.426;6.934;2023-05-15T04:54:31;13.70;99.90
35027;DHT22;60696;51.426;6.934;2023-05-15T04:56:56;13.70;99.90
35027;DHT22;60696;51.426;6.934;2023-05-15T04:59:22;13.70;99.90
35027;DHT22;60696;51.426;6.934;2023-05-15T05:01:49;13.70;99.90
35027;DHT22;60696;51.426;6.934;2023-05-15T05:04:15;13.60;99.90
35027;DHT22;60696;51.426;6.934;2023-05-15T05:06:44;13.60;99.90
35027;DHT22;60696;51.426;6.934;2023-05-15T05:09:09;13.60;99.90
35027;DHT22;60696;51.426;6.934;2023-05-15T05:11:35;13.70;99.90
35027;DHT22;60696;51.426;6.934;2023-05-15T05:14:03;13.50;99.90
35027;DHT22;60696;51.426;6.934;2023-05-15T05:16:29;13.60;99.90
35027;DHT22;60696;51.426;6.934;2023-05-15T05:18:54;13.80;99.90
35027;DHT22;60696;51.426;6.934;2023-05-15T05:21:20;14.00;99.90
35027;DHT22;60696;51.426;6.934;2023-05-15T05:23:46;14.10;99.90
35027;DHT22;60696;51.426;6.934;2023-05-15T05:26:11;14.10;99.90
35027;DHT22;60696;51.426;6.934;2023-05-15T05:28:37;14.10;99.90
35027;DHT22;60696;51.426;6.934;2023-05-15T05:31:03;14.00;99.90
35027;DHT22;60696;51.426;6.934;2023-05-15T05:33:29;14.10;99.90
35027;DHT22;60696;51.426;6.934;2023-05-15T05:35:54;14.00;99.90
35027;DHT22;60696;51.426;6.934;2023-05-15T05:38:20;13.90;99.90
35027;DHT22;60696;51.426;6.934;2023-05-15T05:40:45;13.70;99.90
35027;DHT22;60696;51.426;6.934;2023-05-15T05:43:11;13.60;99.90
35027;DHT22;60696;51.426;6.934;2023-05-15T05:45:36;13.60;99.90
35027;DHT22;60696;51.426;6.934;2023-05-15T05:48:02;13.70;99.90
35027;DHT22;60696;51.426;6.934;2023-05-15T05:50:28;13.60;99.90
35027;DHT22;60696;51.426;6.934;2023-05-15T05:52:53;13.60;99.90
35027;DHT22;60696;51.426;6.934;2023-05-15T05:55:19;13.60;99.90
35027;DHT22;60696;51.426;6.934;2023-05-15T05:57:45;13.60;99.90
35027;DHT22;60696;51.426;6.934;2023-05-15T06:00:11;13.60;99.90
35027;DHT22;60696;51.426;6.934;2023-05-15T06:02:37;13.60;99.90
35027;DHT22;60696;51.426;6.934;2023-05-15T06:05:03;13.70;99.90
35027;DHT22;60696;51.426;6.934;2023-05-15T06:07:29;13.60;99.90
35027;DHT22;60696;51.426;6.934;2023-05-15T06:09:54;13.70;99.90
35027;DHT22;60696;51.426;6.934;2023-05-15T06:12:21;13.70;99.90
35027;DHT22;60696;51.426;6.934;2023-05-15T06:14:46;13.70;99.90
35027;DHT22;60696;51.426;6.934;2023-05-15T06:17:12;13.90;99.90
35027;DHT22;60696;51.426;6.934;2023-05-15T06:19:38;14.00;99.90
35027;DHT22;60696;51.426;6.934;2023-05-15T06:22:03;14.10;99.90
35027;DHT22;60696;51.426;6.934;2023-05-15T06:24:29;14.20;99.90
35027;DHT22;60696;51.426;6.934;2023-05-15T06:26:55;14.20;99.90
35027;DHT22;60696;51.426;6.934;2023-05-15T06:29:21;14.20;99.90
35027;DHT22;60696;51.426;6.934;2023-05-15T06:31:46;14.30;99.90
35027;DHT22;60696;51.426;6.934;2023-05-15T06:34:12;14.50;99.90
35027;DHT22;60696;51.426;6.934;2023-05-15T06:36:38;14.60;99.90
35027;DHT22;60696;51.426;6.934;2023-05-15T06:39:03;14.50;99.90
35027;DHT22;60696;51.426;6.934;2023-05-15T06:41:30;14.60;99.90
35027;DHT22;60696;51.426;6.934;2023-05-15T06:43:56;14.70;99.90
35027;DHT22;60696;51.426;6.934;2023-05-15T06:46:22;14.50;99.90
35027;DHT22;60696;51.426;6.934;2023-05-15T06:48:47;14.60;99.90
35027;DHT22;60696;51.426;6.934;2023-05-15T06:51:13;14.80;99.90
35027;DHT22;60696;51.426;6.934;2023-05-15T06:53:40;14.80;99.90
35027;DHT22;60696;51.426;6.934;2023-05-15T06:56:05;15.00;99.90
35027;DHT22;60696;51.426;6.934;2023-05-15T06:58:31;15.40;99.90
35027;DHT22;60696;51.426;6.934;2023-05-15T07:00:56;15.80;99.90
35027;DHT22;60696;51.426;6.934;2023-05-15T07:03:22;16.50;99.90
35027;DHT22;60696;51.426;6.934;2023-05-15T07:05:48;17.50;99.90
35027;DHT22;60696;51.426;6.934;2023-05-15T07:08:14;17.90;99.90
35027;DHT22;60696;51.426;6.934;2023-05-15T07:10:39;18.20;99.90
35027;DHT22;60696;51.426;6.934;2023-05-15T07:13:05;17.40;99.90
35027;DHT22;60696;51.426;6.934;2023-05-15T07:15:30;17.00;99.90
35027;DHT22;60696;51.426;6.934;2023-05-15T07:17:56;16.70;99.90
35027;DHT22;60696;51.426;6.934;2023-05-15T07:20:22;16.30;99.90
35027;DHT22;60696;51.426;6.934;2023-05-15T07:22:47;16.20;99.90
35027;DHT22;60696;51.426;6.934;2023-05-15T07:25:13;16.70;99.90
35027;DHT22;60696;51.426;6.934;2023-05-15T07:27:38;18.00;99.90
35027;DHT22;60696;51.426;6.934;2023-05-15T07:30:04;19.70;99.90
35027;DHT22;60696;51.426;6.934;2023-05-15T07:32:31;20.90;99.90
35027;DHT22;60696;51.426;6.934;2023-05-15T07:34:56;21.30;97.50
35027;DHT22;60696;51.426;6.934;2023-05-15T07:37:22;22.20;92.50
35027;DHT22;60696;51.426;6.934;2023-05-15T07:39:48;22.90;90.40
35027;DHT22;60696;51.426;6.934;2023-05-15T07:42:14;22.10;92.70
35027;DHT22;60696;51.426;6.934;2023-05-15T07:44:39;21.50;95.00
35027;DHT22;60696;51.426;6.934;2023-05-15T07:47:05;21.40;94.50
35027;DHT22;60696;51.426;6.934;2023-05-15T07:49:30;21.00;95.30
35027;DHT22;60696;51.426;6.934;2023-05-15T07:51:56;20.70;97.00
35027;DHT22;60696;51.426;6.934;2023-05-15T07:54:22;20.20;97.60
35027;DHT22;60696;51.426;6.934;2023-05-15T07:56:47;19.80;99.90
35027;DHT22;60696;51.426;6.934;2023-05-15T07:59:13;19.50;99.50
35027;DHT22;60696;51.426;6.934;2023-05-15T08:01:38;19.50;99.00
35027;DHT22;60696;51.426;6.934;2023-05-15T08:04:06;19.80;99.90
35027;DHT22;60696;51.426;6.934;2023-05-15T08:06:32;20.50;95.90
35027;DHT22;60696;51.426;6.934;2023-05-15T08:08:58;20.70;97.60
35027;DHT22;60696;51.426;6.934;2023-05-15T08:11:24;20.10;98.40
35027;DHT22;60696;51.426;6.934;2023-05-15T08:13:49;20.30;98.10
35027;DHT22;60696;51.426;6.934;2023-05-15T08:16:15;21.10;97.80
35027;DHT22;60696;51.426;6.934;2023-05-15T08:18:40;21.90;95.20
35027;DHT22;60696;51.426;6.934;2023-05-15T08:21:06;22.00;93.30
35027;DHT22;60696;51.426;6.934;2023-05-15T08:23:32;21.90;92.90
35027;DHT22;60696;51.426;6.934;2023-05-15T08:25:58;21.00;93.40
35027;DHT22;60696;51.426;6.934;2023-05-15T08:28:23;21.10;92.50
35027;DHT22;60696;51.426;6.934;2023-05-15T08:30:49;22.70;94.40
35027;DHT22;60696;51.426;6.934;2023-05-15T08:33:15;24.00;91.50
35027;DHT22;60696;51.426;6.934;2023-05-15T08:35:40;25.20;74.90
35027;DHT22;60696;51.426;6.934;2023-05-15T08:38:06;25.20;72.80
35027;DHT22;60696;51.426;6.934;2023-05-15T08:40:32;25.30;74.00
35027;DHT22;60696;51.426;6.934;2023-05-15T08:43:02;24.80;67.90
35027;DHT22;60696;51.426;6.934;2023-05-15T08:45:31;24.60;67.80
35027;DHT22;60696;51.426;6.934;2023-05-15T08:47:57;23.60;77.50
35027;DHT22;60696;51.426;6.934;2023-05-15T08:50:23;24.10;75.70
35027;DHT22;60696;51.426;6.934;2023-05-15T08:52:51;25.40;65.10
35027;DHT22;60696;51.426;6.934;2023-05-15T08:55:18;25.70;67.40
35027;DHT22;60696;51.426;6.934;2023-05-15T08:57:46;26.70;62.80
35027;DHT22;60696;51.426;6.934;2023-05-15T09:00:12;27.30;60.90
35027;DHT22;60696;51.426;6.934;2023-05-15T09:02:40;27.40;58.10
35027;DHT22;60696;51.426;6.934;2023-05-15T09:05:07;26.30;55.00
35027;DHT22;60696;51.426;6.934;2023-05-15T09:07:34;27.10;58.60
35027;DHT22;60696;51.426;6.934;2023-05-15T09:10:01;27.50;56.60
35027;DHT22;60696;51.426;6.934;2023-05-15T09:12:27;27.10;57.00
35027;DHT22;60696;51.426;6.934;2023-05-15T09:17:35;25.80;53.60
35027;DHT22;60696;51.426;6.934;2023-05-15T09:20:02;25.90;59.50
35027;DHT22;60696;51.426;6.934;2023-05-15T09:22:33;25.90;60.70
35027;DHT22;60696;51.426;6.934;2023-05-15T09:24:58;26.40;60.70
35027;DHT22;60696;51.426;6.934;2023-05-15T09:27:24;25.70;62.20
35027;DHT22;60696;51.426;6.934;2023-05-15T09:29:50;25.50;65.10
35027;DHT22;60696;51.426;6.934;2023-05-15T09:32:20;25.00;62.10
35027;DHT22;60696;51.426;6.934;2023-05-15T09:34:46;24.50;68.90
35027;DHT22;60696;51.426;6.934;2023-05-15T09:37:34;24.20;70.80
35027;DHT22;60696;51.426;6.934;2023-05-15T09:40:07;23.20;68.30
35027;DHT22;60696;51.426;6.934;2023-05-15T09:42:34;23.10;73.10
35027;DHT22;60696;51.426;6.934;2023-05-15T09:45:03;22.70;62.50
35027;DHT22;60696;51.426;6.934;2023-05-15T09:47:29;22.70;73.80
35027;DHT22;60696;51.426;6.934;2023-05-15T09:49:55;22.00;73.50
35027;DHT22;60696;51.426;6.934;2023-05-15T09:52:21;22.40;86.00
35027;DHT22;60696;51.426;6.934;2023-05-15T09:54:48;22.90;85.30
35027;DHT22;60696;51.426;6.934;2023-05-15T09:57:14;22.70;66.40
35027;DHT22;60696;51.426;6.934;2023-05-15T09:59:47;22.10;65.40
35027;DHT22;60696;51.426;6.934;2023-05-15T10:02:32;22.10;64.60
35027;DHT22;60696;51.426;6.934;2023-05-15T10:05:00;22.20;68.80
35027;DHT22;60696;51.426;6.934;2023-05-15T10:07:35;22.00;65.40
35027;DHT22;60696;51.426;6.934;2023-05-15T10:10:02;22.40;72.90
35027;DHT22;60696;51.426;6.934;2023-05-15T10:12:29;22.40;67.80
35027;DHT22;60696;51.426;6.934;2023-05-15T10:14:57;21.80;71.40
35027;DHT22;60696;51.426;6.934;2023-05-15T10:17:24;22.00;78.40
35027;DHT22;60696;51.426;6.934;2023-05-15T10:19:51;21.80;67.30
35027;DHT22;60696;51.426;6.934;2023-05-15T10:22:22;22.40;73.80
35027;DHT22;60696;51.426;6.934;2023-05-15T10:25:01;22.80;61.70
35027;DHT22;60696;51.426;6.934;2023-05-15T10:27:29;22.90;70.30
35027;DHT22;60696;51.426;6.934;2023-05-15T10:29:55;22.50;70.80
35027;DHT22;60696;51.426;6.934;2023-05-15T10:32:22;22.40;64.80
35027;DHT22;60696;51.426;6.934;2023-05-15T10:34:49;22.10;67.00
35027;DHT22;60696;51.426;6.934;2023-05-15T10:37:16;21.90;68.80
35027;DHT22;60696;51.426;6.934;2023-05-15T10:39:43;21.70;61.50
35027;DHT22;60696;51.426;6.934;2023-05-15T10:42:11;21.90;58.10
35027;DHT22;60696;51.426;6.934;2023-05-15T10:44:39;22.00;63.80
35027;DHT22;60696;51.426;6.934;2023-05-15T10:47:07;22.20;63.30
35027;DHT22;60696;51.426;6.934;2023-05-15T10:49:33;22.20;67.70
35027;DHT22;60696;51.426;6.934;2023-05-15T10:52:00;22.30;72.00
35027;DHT22;60696;51.426;6.934;2023-05-15T10:54:27;22.70;75.60
35027;DHT22;60696;51.426;6.934;2023-05-15T10:56:55;23.10;78.70
35027;DHT22;60696;51.426;6.934;2023-05-15T10:59:32;23.20;74.80
35027;DHT22;60696;51.426;6.934;2023-05-15T11:02:25;22.80;64.00
35027;DHT22;60696;51.426;6.934;2023-05-15T11:05:09;22.90;63.80
35027;DHT22;60696;51.426;6.934;2023-05-15T11:07:36;22.50;79.90
35027;DHT22;60696;51.426;6.934;2023-05-15T11:12:57;23.30;63.90
35027;DHT22;60696;51.426;6.934;2023-05-15T11:15:23;23.20;76.30
35027;DHT22;60696;51.426;6.934;2023-05-15T11:18:07;23.10;74.80
35027;DHT22;60696;51.426;6.934;2023-05-15T11:23:22;23.20;77.40
35027;DHT22;60696;51.426;6.934;2023-05-15T11:25:57;23.20;87.10
35027;DHT22;60696;51.426;6.934;2023-05-15T11:28:23;23.40;69.70
35027;DHT22;60696;51.426;6.934;2023-05-15T11:30:51;23.30;76.00
35027;DHT22;60696;51.426;6.934;2023-05-15T11:33:19;23.10;71.80
35027;DHT22;60696;51.426;6.934;2023-05-15T11:35:46;22.80;67.40
35027;DHT22;60696;51.426;6.934;2023-05-15T11:38:18;22.80;62.70
35027;DHT22;60696;51.426;6.934;2023-05-15T11:43:20;22.60;66.80
35027;DHT22;60696;51.426;6.934;2023-05-15T11:45:49;22.90;65.80
35027;DHT22;60696;51.426;6.934;2023-05-15T11:48:16;23.00;70.50
35027;DHT22;60696;51.426;6.934;2023-05-15T11:50:42;22.70;56.00
35027;DHT22;60696;51.426;6.934;2023-05-15T11:53:10;22.30;53.60
35027;DHT22;60696;51.426;6.934;2023-05-15T11:55:37;22.00;55.70
35027;DHT22;60696;51.426;6.934;2023-05-15T11:58:05;22.30;59.20
35027;DHT22;60696;51.426;6.934;2023-05-15T12:00:34;22.30;56.10
35027;DHT22;60696;51.426;6.934;2023-05-15T12:03:00;22.40;58.10
35027;DHT22;60696;51.426;6.934;2023-05-15T12:05:28;22.40;53.20
35027;DHT22;60696;51.426;6.934;2023-05-15T12:07:55;22.40;54.70
35027;DHT22;60696;51.426;6.934;2023-05-15T12:10:21;22.10;56.60
35027;DHT22;60696;51.426;6.934;2023-05-15T12:12:47;22.30;59.30
35027;DHT22;60696;51.426;6.934;2023-05-15T12:15:15;22.10;59.90
35027;DHT22;60696;51.426;6.934;2023-05-15T12:17:42;22.10;60.10
35027;DHT22;60696;51.426;6.934;2023-05-15T12:20:11;22.30;63.40
35027;DHT22;60696;51.426;6.934;2023-05-15T12:22:40;22.10;58.30
35027;DHT22;60696;51.426;6.934;2023-05-15T12:25:10;22.30;64.60
35027;DHT22;60696;51.426;6.934;2023-05-15T12:27:37;22.10;58.70
35027;DHT22;60696;51.426;6.934;2023-05-15T12:30:04;22.10;61.70
35027;DHT22;60696;51.426;6.934;2023-05-15T12:32:32;22.10;53.60
35027;DHT22;60696;51.426;6.934;2023-05-15T12:34:58;22.10;61.20
35027;DHT22;60696;51.426;6.934;2023-05-15T12:37:24;21.80;53.90
35027;DHT22;60696;51.426;6.934;2023-05-15T12:39:55;21.90;55.70
35027;DHT22;60696;51.426;6.934;2023-05-15T12:42:21;21.80;55.50
35027;DHT22;60696;51.426;6.934;2023-05-15T12:44:51;21.50;55.50
35027;DHT22;60696;51.426;6.934;2023-05-15T12:47:22;21.50;59.70
35027;DHT22;60696;51.426;6.934;2023-05-15T12:49:48;21.80;60.00
35027;DHT22;60696;51.426;6.934;2023-05-15T12:52:14;21.90;55.10
35027;DHT22;60696;51.426;6.934;2023-05-15T12:54:40;21.90;53.80
35027;DHT22;60696;51.426;6.934;2023-05-15T12:57:07;21.80;60.50
35027;DHT22;60696;51.426;6.934;2023-05-15T12:59:33;21.80;57.70
35027;DHT22;60696;51.426;6.934;2023-05-15T13:01:59;21.90;57.00
35027;DHT22;60696;51.426;6.934;2023-05-15T13:04:24;21.80;57.70
35027;DHT22;60696;51.426;6.934;2023-05-15T13:06:50;21.70;56.50
35027;DHT22;60696;51.426;6.934;2023-05-15T13:09:21;21.70;58.50
35027;DHT22;60696;51.426;6.934;2023-05-15T13:11:47;21.50;57.10
35027;DHT22;60696;51.426;6.934;2023-05-15T13:14:15;21.70;56.20
35027;DHT22;60696;51.426;6.934;2023-05-15T13:16:42;21.50;54.00
35027;DHT22;60696;51.426;6.934;2023-05-15T13:19:07;21.10;56.50
35027;DHT22;60696;51.426;6.934;2023-05-15T13:21:34;21.30;59.70
35027;DHT22;60696;51.426;6.934;2023-05-15T13:24:00;21.50;60.50
35027;DHT22;60696;51.426;6.934;2023-05-15T13:26:25;21.80;63.70
35027;DHT22;60696;51.426;6.934;2023-05-15T13:28:51;21.70;63.90
35027;DHT22;60696;51.426;6.934;2023-05-15T13:31:16;21.80;64.00
35027;DHT22;60696;51.426;6.934;2023-05-15T13:33:42;22.00;62.20
35027;DHT22;60696;51.426;6.934;2023-05-15T13:36:08;22.10;59.90
35027;DHT22;60696;51.426;6.934;2023-05-15T13:38:33;21.90;56.10
35027;DHT22;60696;51.426;6.934;2023-05-15T13:40:59;21.70;57.80
35027;DHT22;60696;51.426;6.934;2023-05-15T13:43:25;21.20;63.00
35027;DHT22;60696;51.426;6.934;2023-05-15T13:45:50;21.20;71.70
35027;DHT22;60696;51.426;6.934;2023-05-15T13:48:16;21.20;74.50
35027;DHT22;60696;51.426;6.934;2023-05-15T13:50:44;21.30;70.70
35027;DHT22;60696;51.426;6.934;2023-05-15T13:53:10;21.20;74.00
35027;DHT22;60696;51.426;6.934;2023-05-15T13:55:44;21.20;74.60
35027;DHT22;60696;51.426;6.934;2023-05-15T13:58:11;21.00;77.40
35027;DHT22;60696;51.426;6.934;2023-05-15T14:00:41;20.90;75.90
35027;DHT22;60696;51.426;6.934;2023-05-15T14:03:07;20.70;77.00
35027;DHT22;60696;51.426;6.934;2023-05-15T14:05:32;20.50;75.70
35027;DHT22;60696;51.426;6.934;2023-05-15T14:07:58;20.60;82.70
35027;DHT22;60696;51.426;6.934;2023-05-15T14:10:24;20.70;76.60
35027;DHT22;60696;51.426;6.934;2023-05-15T14:12:50;20.80;77.80
35027;DHT22;60696;51.426;6.934;2023-05-15T14:15:15;20.90;78.20
35027;DHT22;60696;51.426;6.934;2023-05-15T14:17:41;21.10;74.80
35027;DHT22;60696;51.426;6.934;2023-05-15T14:20:08;20.90;74.80
35027;DHT22;60696;51.426;6.934;2023-05-15T14:22:35;20.80;74.60
35027;DHT22;60696;51.426;6.934;2023-05-15T14:25:01;20.60;73.60
35027;DHT22;60696;51.426;6.934;2023-05-15T14:27:28;20.70;73.60
35027;DHT22;60696;51.426;6.934;2023-05-15T14:29:54;20.70;72.40
35027;DHT22;60696;51.426;6.934;2023-05-15T14:32:21;20.90;73.80
35027;DHT22;60696;51.426;6.934;2023-05-15T14:34:47;20.90;72.90
35027;DHT22;60696;51.426;6.934;2023-05-15T14:37:12;20.90;69.90
35027;DHT22;60696;51.426;6.934;2023-05-15T14:39:38;20.90;70.80
35027;DHT22;60696;51.426;6.934;2023-05-15T14:42:04;21.00;72.40
35027;DHT22;60696;51.426;6.934;2023-05-15T14:44:31;20.60;71.10
35027;DHT22;60696;51.426;6.934;2023-05-15T14:47:10;20.50;76.50
35027;DHT22;60696;51.426;6.934;2023-05-15T14:49:41;20.30;76.40
35027;DHT22;60696;51.426;6.934;2023-05-15T14:52:08;20.20;77.30
35027;DHT22;60696;51.426;6.934;2023-05-15T14:54:34;20.00;79.60
35027;DHT22;60696;51.426;6.934;2023-05-15T14:57:00;19.80;80.20
35027;DHT22;60696;51.426;6.934;2023-05-15T14:59:29;19.80;84.70
35027;DHT22;60696;51.426;6.934;2023-05-15T15:01:54;19.70;85.40
35027;DHT22;60696;51.426;6.934;2023-05-15T15:04:20;19.80;82.20
35027;DHT22;60696;51.426;6.934;2023-05-15T15:06:46;19.70;81.50
35027;DHT22;60696;51.426;6.934;2023-05-15T15:09:12;19.90;80.20
35027;DHT22;60696;51.426;6.934;2023-05-15T15:11:37;19.80;80.30
35027;DHT22;60696;51.426;6.934;2023-05-15T15:14:03;19.90;81.50
35027;DHT22;60696;51.426;6.934;2023-05-15T15:16:29;20.10;79.70
35027;DHT22;60696;51.426;6.934;2023-05-15T15:18:54;20.20;80.90
35027;DHT22;60696;51.426;6.934;2023-05-15T15:21:20;20.10;84.00
35027;DHT22;60696;51.426;6.934;2023-05-15T15:23:46;20.10;81.50
35027;DHT22;60696;51.426;6.934;2023-05-15T15:26:13;20.10;79.20
35027;DHT22;60696;51.426;6.934;2023-05-15T15:28:38;20.10;79.80
35027;DHT22;60696;51.426;6.934;2023-05-15T15:31:04;20.00;76.00
35027;DHT22;60696;51.426;6.934;2023-05-15T15:33:30;20.10;80.00
35027;DHT22;60696;51.426;6.934;2023-05-15T15:35:56;20.10;72.70
35027;DHT22;60696;51.426;6.934;2023-05-15T15:38:21;20.00;76.80
35027;DHT22;60696;51.426;6.934;2023-05-15T15:40:47;20.00;78.10
35027;DHT22;60696;51.426;6.934;2023-05-15T15:43:12;19.80;80.60
35027;DHT22;60696;51.426;6.934;2023-05-15T15:45:38;19.60;80.20
35027;DHT22;60696;51.426;6.934;2023-05-15T15:48:04;19.40;80.60
35027;DHT22;60696;51.426;6.934;2023-05-15T15:50:29;19.20;86.70
35027;DHT22;60696;51.426;6.934;2023-05-15T15:52:55;19.10;87.40
35027;DHT22;60696;51.426;6.934;2023-05-15T15:55:21;18.90;92.00
35027;DHT22;60696;51.426;6.934;2023-05-15T15:57:46;18.80;98.70
35027;DHT22;60696;51.426;6.934;2023-05-15T16:00:12;18.60;99.90
35027;DHT22;60696;51.426;6.934;2023-05-15T16:02:39;18.60;99.90
35027;DHT22;60696;51.426;6.934;2023-05-15T16:05:05;18.40;99.90
35027;DHT22;60696;51.426;6.934;2023-05-15T16:07:31;18.40;99.90
35027;DHT22;60696;51.426;6.934;2023-05-15T16:09:59;18.50;99.90
35027;DHT22;60696;51.426;6.934;2023-05-15T16:12:24;18.40;99.90
35027;DHT22;60696;51.426;6.934;2023-05-15T16:14:50;18.00;99.90
35027;DHT22;60696;51.426;6.934;2023-05-15T16:17:17;18.20;99.90
35027;DHT22;60696;51.426;6.934;2023-05-15T16:19:42;18.20;99.90
35027;DHT22;60696;51.426;6.934;2023-05-15T16:22:08;18.10;99.80
35027;DHT22;60696;51.426;6.934;2023-05-15T16:24:33;18.00;99.80
35027;DHT22;60696;51.426;6.934;2023-05-15T16:27:01;17.90;99.20
35027;DHT22;60696;51.426;6.934;2023-05-15T16:29:27;18.00;99.60
35027;DHT22;60696;51.426;6.934;2023-05-15T16:31:53;18.10;99.20
35027;DHT22;60696;51.426;6.934;2023-05-15T16:34:21;18.10;98.50
35027;DHT22;60696;51.426;6.934;2023-05-15T16:36:46;18.00;98.80
35027;DHT22;60696;51.426;6.934;2023-05-15T16:39:12;18.00;99.90
35027;DHT22;60696;51.426;6.934;2023-05-15T16:41:38;18.10;99.90
35027;DHT22;60696;51.426;6.934;2023-05-15T16:44:03;18.20;99.80
35027;DHT22;60696;51.426;6.934;2023-05-15T16:46:33;18.10;98.20
35027;DHT22;60696;51.426;6.934;2023-05-15T16:48:59;18.00;96.70
35027;DHT22;60696;51.426;6.934;2023-05-15T16:51:25;18.10;97.00
35027;DHT22;60696;51.426;6.934;2023-05-15T16:53:51;18.10;97.40
35027;DHT22;60696;51.426;6.934;2023-05-15T16:56:18;18.10;97.40
35027;DHT22;60696;51.426;6.934;2023-05-15T16:58:43;18.10;98.90
35027;DHT22;60696;51.426;6.934;2023-05-15T17:01:09;18.00;98.70
35027;DHT22;60696;51.426;6.934;2023-05-15T17:03:35;18.10;98.80
35027;DHT22;60696;51.426;6.934;2023-05-15T17:06:01;18.00;99.60
35027;DHT22;60696;51.426;6.934;2023-05-15T17:08:26;18.00;99.90
35027;DHT22;60696;51.426;6.934;2023-05-15T17:10:52;18.00;99.90
35027;DHT22;60696;51.426;6.934;2023-05-15T17:13:17;18.00;99.70
35027;DHT22;60696;51.426;6.934;2023-05-15T17:15:43;17.60;99.80
35027;DHT22;60696;51.426;6.934;2023-05-15T17:18:11;17.70;99.90
35027;DHT22;60696;51.426;6.934;2023-05-15T17:20:37;17.70;99.90
35027;DHT22;60696;51.426;6.934;2023-05-15T17:23:02;17.70;99.90
35027;DHT22;60696;51.426;6.934;2023-05-15T17:25:28;17.50;99.90
35027;DHT22;60696;51.426;6.934;2023-05-15T17:27:54;17.40;99.90
35027;DHT22;60696;51.426;6.934;2023-05-15T17:30:19;17.20;99.90
35027;DHT22;60696;51.426;6.934;2023-05-15T17:32:45;17.20;99.90
35027;DHT22;60696;51.426;6.934;2023-05-15T17:35:10;17.00;99.90
35027;DHT22;60696;51.426;6.934;2023-05-15T17:37:36;16.90;99.90
35027;DHT22;60696;51.426;6.934;2023-05-15T17:40:02;16.70;99.90
35027;DHT22;60696;51.426;6.934;2023-05-15T17:42:28;16.60;99.90
35027;DHT22;60696;51.426;6.934;2023-05-15T17:44:53;16.50;99.90
35027;DHT22;60696;51.426;6.934;2023-05-15T17:47:20;16.30;99.90
35027;DHT22;60696;51.426;6.934;2023-05-15T17:49:46;16.10;99.90
35027;DHT22;60696;51.426;6.934;2023-05-15T17:52:12;16.00;99.90
35027;DHT22;60696;51.426;6.934;2023-05-15T17:54:37;15.90;99.90
35027;DHT22;60696;51.426;6.934;2023-05-15T17:57:03;15.60;99.90
35027;DHT22;60696;51.426;6.934;2023-05-15T17:59:29;15.50;99.90
35027;DHT22;60696;51.426;6.934;2023-05-15T18:01:55;15.40;99.90
35027;DHT22;60696;51.426;6.934;2023-05-15T18:04:21;15.30;99.90
35027;DHT22;60696;51.426;6.934;2023-05-15T18:06:46;15.30;99.90
35027;DHT22;60696;51.426;6.934;2023-05-15T18:09:12;15.20;99.90
35027;DHT22;60696;51.426;6.934;2023-05-15T18:11:38;15.10;99.90
35027;DHT22;60696;51.426;6.934;2023-05-15T18:14:03;15.10;99.90
35027;DHT22;60696;51.426;6.934;2023-05-15T18:16:29;15.00;99.90
35027;DHT22;60696;51.426;6.934;2023-05-15T18:18:57;15.00;99.90
35027;DHT22;60696;51.426;6.934;2023-05-15T18:21:26;15.10;99.90
35027;DHT22;60696;51.426;6.934;2023-05-15T18:23:52;15.10;99.90
35027;DHT22;60696;51.426;6.934;2023-05-15T18:26:18;15.10;99.90
35027;DHT22;60696;51.426;6.934;2023-05-15T18:28:44;15.00;99.90
35027;DHT22;60696;51.426;6.934;2023-05-15T18:31:09;15.00;99.90
35027;DHT22;60696;51.426;6.934;2023-05-15T18:33:35;15.00;99.90
35027;DHT22;60696;51.426;6.934;2023-05-15T18:36:01;15.00;99.90
35027;DHT22;60696;51.426;6.934;2023-05-15T18:38:27;15.00;99.90
35027;DHT22;60696;51.426;6.934;2023-05-15T18:40:52;15.10;99.90
35027;DHT22;60696;51.426;6.934;2023-05-15T18:43:18;15.20;99.90
35027;DHT22;60696;51.426;6.934;2023-05-15T18:45:44;15.20;99.90
35027;DHT22;60696;51.426;6.934;2023-05-15T18:48:10;15.20;99.90
35027;DHT22;60696;51.426;6.934;2023-05-15T18:50:36;15.20;99.90
35027;DHT22;60696;51.426;6.934;2023-05-15T18:53:03;14.80;99.90
35027;DHT22;60696;51.426;6.934;2023-05-15T18:55:29;14.80;99.90
35027;DHT22;60696;51.426;6.934;2023-05-15T18:57:55;14.70;99.90
35027;DHT22;60696;51.426;6.934;2023-05-15T19:00:21;14.60;99.90
35027;DHT22;60696;51.426;6.934;2023-05-15T19:02:46;14.70;99.90
35027;DHT22;60696;51.426;6.934;2023-05-15T19:05:12;14.80;99.90
35027;DHT22;60696;51.426;6.934;2023-05-15T19:07:40;14.70;99.90
35027;DHT22;60696;51.426;6.934;2023-05-15T19:10:06;14.70;99.90
35027;DHT22;60696;51.426;6.934;2023-05-15T19:12:32;14.40;99.90
35027;DHT22;60696;51.426;6.934;2023-05-15T19:14:58;14.40;99.90
35027;DHT22;60696;51.426;6.934;2023-05-15T19:17:23;14.30;99.90
35027;DHT22;60696;51.426;6.934;2023-05-15T19:19:50;14.30;99.90
35027;DHT22;60696;51.426;6.934;2023-05-15T19:22:19;14.10;99.90
35027;DHT22;60696;51.426;6.934;2023-05-15T19:24:45;14.00;99.90
35027;DHT22;60696;51.426;6.934;2023-05-15T19:27:11;14.00;99.90
35027;DHT22;60696;51.426;6.934;2023-05-15T19:29:37;14.00;99.90
35027;DHT22;60696;51.426;6.934;2023-05-15T19:32:02;14.10;99.90
35027;DHT22;60696;51.426;6.934;2023-05-15T19:34:28;14.20;99.90
35027;DHT22;60696;51.426;6.934;2023-05-15T19:36:54;14.20;99.90
35027;DHT22;60696;51.426;6.934;2023-05-15T19:39:20;14.10;99.90